sensor_id;sensor_type;location;lat;lon;timestamp;pressure;altitude;pressure_sealevel;temperature;humidity
28312;BME280;15572;48.810;9.148;2022-09-12T00:00:29;98287.94;;;12.40;100.00
28312;BME280;15572;48.810;9.148;2022-09-12T00:05:26;98289.59;;;12.34;100.00
28312;BME280;15572;48.810;9.148;2022-09-12T00:10:24;98294.00;;;12.42;100.00
28312;BME280;15572;48.810;9.148;2022-09-12T00:15:21;98283.13;;;12.35;100.00
28312;BME280;15572;48.810;9.148;2022-09-12T00:20:17;98288.34;;;12.37;100.00
28312;BME280;15572;48.810;9.148;2022-09-12T00:25:14;98284.78;;;12.36;100.00
28312;BME280;15572;48.810;9.148;2022-09-12T00:30:12;98286.06;;;12.40;100.00
28312;BME280;15572;48.810;9.148;2022-09-12T00:35:08;98284.78;;;12.36;100.00
28312;BME280;15572;48.810;9.148;2022-09-12T00:40:06;98273.75;;;12.38;100.00
28312;BME280;15572;48.810;9.148;2022-09-12T00:45:03;98271.44;;;12.28;100.00
28312;BME280;15572;48.810;9.148;2022-09-12T00:50:04;98278.72;;;12.21;100.00
28312;BME280;15572;48.810;9.148;2022-09-12T00:55:06;98264.31;;;12.20;100.00
28312;BME280;15572;48.810;9.148;2022-09-12T01:00:07;98276.78;;;12.08;100.00
28312;BME280;15572;48.810;9.148;2022-09-12T01:05:10;98271.34;;;12.08;100.00
28312;BME280;15572;48.810;9.148;2022-09-12T01:10:08;98262.78;;;12.05;100.00
28312;BME280;15572;48.810;9.148;2022-09-12T01:15:06;98254.84;;;12.03;100.00
28312;BME280;15572;48.810;9.148;2022-09-12T01:20:24;98251.09;;;12.04;100.00
28312;BME280;15572;48.810;9.148;2022-09-12T01:25:30;98245.88;;;12.03;100.00
28312;BME280;15572;48.810;9.148;2022-09-12T01:30:42;98239.00;;;12.00;100.00
28312;BME280;15572;48.810;9.148;2022-09-12T01:35:44;98239.38;;;11.91;100.00
28312;BME280;15572;48.810;9.148;2022-09-12T01:40:47;98232.69;;;11.87;100.00
28312;BME280;15572;48.810;9.148;2022-09-12T01:45:55;98235.84;;;11.97;100.00
28312;BME280;15572;48.810;9.148;2022-09-12T01:50:58;98229.38;;;11.91;100.00
28312;BME280;15572;48.810;9.148;2022-09-12T01:56:01;98227.69;;;11.84;100.00
28312;BME280;15572;48.810;9.148;2022-09-12T02:01:05;98232.09;;;11.91;100.00
28312;BME280;15572;48.810;9.148;2022-09-12T02:06:06;98219.97;;;11.80;100.00
28312;BME280;15572;48.810;9.148;2022-09-12T02:11:07;98212.66;;;11.88;100.00
28312;BME280;15572;48.810;9.148;2022-09-12T02:16:08;98216.00;;;11.90;100.00
28312;BME280;15572;48.810;9.148;2022-09-12T02:21:06;98204.28;;;11.76;100.00
28312;BME280;15572;48.810;9.148;2022-09-12T02:26:06;98208.66;;;11.77;100.00
28312;BME280;15572;48.810;9.148;2022-09-12T02:31:12;98212.75;;;11.66;100.00
28312;BME280;15572;48.810;9.148;2022-09-12T02:36:14;98207.31;;;11.53;100.00
28312;BME280;15572;48.810;9.148;2022-09-12T02:41:19;98207.47;;;11.45;100.00
28312;BME280;15572;48.810;9.148;2022-09-12T02:46:21;98198.53;;;11.51;100.00
28312;BME280;15572;48.810;9.148;2022-09-12T02:51:19;98199.31;;;11.45;100.00
28312;BME280;15572;48.810;9.148;2022-09-12T02:56:20;98196.81;;;11.44;100.00
28312;BME280;15572;48.810;9.148;2022-09-12T03:01:28;98193.03;;;11.38;100.00
28312;BME280;15572;48.810;9.148;2022-09-12T03:06:33;98190.09;;;11.33;100.00
28312;BME280;15572;48.810;9.148;2022-09-12T03:11:41;98190.09;;;11.26;100.00
28312;BME280;15572;48.810;9.148;2022-09-12T03:16:52;98195.50;;;11.33;100.00
28312;BME280;15572;48.810;9.148;2022-09-12T03:21:59;98205.03;;;11.16;100.00
28312;BME280;15572;48.810;9.148;2022-09-12T03:27:05;98197.97;;;11.21;100.00
28312;BME280;15572;48.810;9.148;2022-09-12T03:32:04;98193.72;;;11.06;100.00
28312;BME280;15572;48.810;9.148;2022-09-12T03:37:01;98199.38;;;11.11;100.00
28312;BME280;15572;48.810;9.148;2022-09-12T03:41:58;98207.28;;;11.06;100.00
28312;BME280;15572;48.810;9.148;2022-09-12T03:46:54;98202.66;;;11.00;100.00
28312;BME280;15572;48.810;9.148;2022-09-12T03:51:52;98202.88;;;11.05;100.00
28312;BME280;15572;48.810;9.148;2022-09-12T03:56:49;98198.31;;;11.12;100.00
28312;BME280;15572;48.810;9.148;2022-09-12T04:01:45;98198.91;;;11.07;100.00
28312;BME280;15572;48.810;9.148;2022-09-12T04:06:42;98200.16;;;11.05;100.00
28312;BME280;15572;48.810;9.148;2022-09-12T04:11:39;98200.78;;;11.00;100.00
28312;BME280;15572;48.810;9.148;2022-09-12T04:16:36;98211.84;;;11.05;100.00
28312;BME280;15572;48.810;9.148;2022-09-12T04:21:32;98193.63;;;10.92;100.00
28312;BME280;15572;48.810;9.148;2022-09-12T04:26:29;98196.75;;;10.89;100.00
28312;BME280;15572;48.810;9.148;2022-09-12T04:31:27;98200.63;;;10.80;100.00
28312;BME280;15572;48.810;9.148;2022-09-12T04:36:24;98188.94;;;10.73;100.00
28312;BME280;15572;48.810;9.148;2022-09-12T04:41:23;98206.81;;;10.74;100.00
28312;BME280;15572;48.810;9.148;2022-09-12T04:46:20;98203.88;;;10.69;100.00
28312;BME280;15572;48.810;9.148;2022-09-12T04:51:20;98201.09;;;10.56;100.00
28312;BME280;15572;48.810;9.148;2022-09-12T04:56:18;98189.50;;;10.41;100.00
28312;BME280;15572;48.810;9.148;2022-09-12T05:01:16;98188.19;;;10.37;100.00
28312;BME280;15572;48.810;9.148;2022-09-12T05:06:15;98193.69;;;10.43;100.00
28312;BME280;15572;48.810;9.148;2022-09-12T05:11:15;98195.09;;;10.39;100.00
28312;BME280;15572;48.810;9.148;2022-09-12T05:16:14;98194.25;;;10.39;100.00
28312;BME280;15572;48.810;9.148;2022-09-12T05:21:12;98193.75;;;10.50;100.00
28312;BME280;15572;48.810;9.148;2022-09-12T05:26:12;98192.97;;;10.56;100.00
28312;BME280;15572;48.810;9.148;2022-09-12T05:31:11;98189.84;;;10.59;100.00
28312;BME280;15572;48.810;9.148;2022-09-12T05:36:10;98196.28;;;10.58;100.00
28312;BME280;15572;48.810;9.148;2022-09-12T05:41:08;98204.41;;;10.58;100.00
28312;BME280;15572;48.810;9.148;2022-09-12T05:46:09;98209.03;;;10.64;100.00
28312;BME280;15572;48.810;9.148;2022-09-12T05:51:09;98213.13;;;10.81;100.00
28312;BME280;15572;48.810;9.148;2022-09-12T05:56:07;98214.09;;;11.02;100.00
28312;BME280;15572;48.810;9.148;2022-09-12T06:01:06;98205.28;;;11.21;100.00
28312;BME280;15572;48.810;9.148;2022-09-12T06:06:05;98209.06;;;11.33;100.00
28312;BME280;15572;48.810;9.148;2022-09-12T06:11:04;98208.94;;;11.48;100.00
28312;BME280;15572;48.810;9.148;2022-09-12T06:16:02;98206.69;;;11.58;100.00
28312;BME280;15572;48.810;9.148;2022-09-12T06:21:01;98204.84;;;11.71;100.00
28312;BME280;15572;48.810;9.148;2022-09-12T06:26:00;98190.13;;;11.80;100.00
28312;BME280;15572;48.810;9.148;2022-09-12T06:31:01;98185.75;;;11.93;100.00
28312;BME280;15572;48.810;9.148;2022-09-12T06:36:03;98197.88;;;12.03;100.00
28312;BME280;15572;48.810;9.148;2022-09-12T06:41:02;98197.06;;;12.16;100.00
28312;BME280;15572;48.810;9.148;2022-09-12T06:45:59;98197.06;;;12.29;100.00
28312;BME280;15572;48.810;9.148;2022-09-12T06:50:57;98197.75;;;12.44;100.00
28312;BME280;15572;48.810;9.148;2022-09-12T06:55:55;98203.56;;;12.61;100.00
28312;BME280;15572;48.810;9.148;2022-09-12T07:01:00;98206.50;;;12.79;100.00
28312;BME280;15572;48.810;9.148;2022-09-12T07:06:03;98210.84;;;13.00;100.00
28312;BME280;15572;48.810;9.148;2022-09-12T07:11:07;98203.31;;;13.15;100.00
28312;BME280;15572;48.810;9.148;2022-09-12T07:16:06;98198.28;;;13.25;100.00
28312;BME280;15572;48.810;9.148;2022-09-12T07:21:04;98194.25;;;13.41;100.00
28312;BME280;15572;48.810;9.148;2022-09-12T07:26:01;98197.56;;;13.56;100.00
28312;BME280;15572;48.810;9.148;2022-09-12T07:31:04;98193.91;;;13.75;100.00
28312;BME280;15572;48.810;9.148;2022-09-12T07:36:03;98191.72;;;13.97;100.00
28312;BME280;15572;48.810;9.148;2022-09-12T07:41:00;98193.25;;;14.18;100.00
28312;BME280;15572;48.810;9.148;2022-09-12T07:45:57;98196.50;;;14.40;100.00
28312;BME280;15572;48.810;9.148;2022-09-12T07:50:57;98187.47;;;14.64;100.00
28312;BME280;15572;48.810;9.148;2022-09-12T07:55:56;98202.00;;;14.83;100.00
28312;BME280;15572;48.810;9.148;2022-09-12T08:00:52;98201.59;;;15.04;100.00
28312;BME280;15572;48.810;9.148;2022-09-12T08:05:49;98196.03;;;15.17;100.00
28312;BME280;15572;48.810;9.148;2022-09-12T08:10:45;98202.00;;;15.26;100.00
28312;BME280;15572;48.810;9.148;2022-09-12T08:15:43;98195.19;;;15.35;100.00
28312;BME280;15572;48.810;9.148;2022-09-12T08:20:39;98191.50;;;15.47;100.00
28312;BME280;15572;48.810;9.148;2022-09-12T08:25:37;98186.97;;;15.60;100.00
28312;BME280;15572;48.810;9.148;2022-09-12T08:30:33;98188.59;;;15.79;100.00
28312;BME280;15572;48.810;9.148;2022-09-12T08:35:31;98194.97;;;15.91;100.00
28312;BME280;15572;48.810;9.148;2022-09-12T08:40:28;98198.34;;;16.05;100.00
28312;BME280;15572;48.810;9.148;2022-09-12T08:45:31;98192.31;;;16.14;100.00
28312;BME280;15572;48.810;9.148;2022-09-12T08:50:28;98184.91;;;16.33;100.00
28312;BME280;15572;48.810;9.148;2022-09-12T08:55:30;98178.28;;;16.52;100.00
28312;BME280;15572;48.810;9.148;2022-09-12T09:00:37;98179.78;;;16.66;100.00
28312;BME280;15572;48.810;9.148;2022-09-12T09:05:46;98172.78;;;16.82;100.00
28312;BME280;15572;48.810;9.148;2022-09-12T09:10:48;98176.34;;;17.06;100.00
28312;BME280;15572;48.810;9.148;2022-09-12T09:15:55;98180.63;;;17.25;100.00
28312;BME280;15572;48.810;9.148;2022-09-12T09:21:01;98179.00;;;17.52;100.00
28312;BME280;15572;48.810;9.148;2022-09-12T09:26:04;98178.06;;;17.70;100.00
28312;BME280;15572;48.810;9.148;2022-09-12T09:31:03;98178.13;;;17.87;100.00
28312;BME280;15572;48.810;9.148;2022-09-12T09:36:06;98167.66;;;18.12;100.00
28312;BME280;15572;48.810;9.148;2022-09-12T09:41:21;98174.88;;;18.46;98.83
28312;BME280;15572;48.810;9.148;2022-09-12T09:46:22;98173.66;;;18.71;97.21
28312;BME280;15572;48.810;9.148;2022-09-12T09:51:23;98174.81;;;18.91;94.67
28312;BME280;15572;48.810;9.148;2022-09-12T09:56:26;98171.06;;;19.14;93.37
28312;BME280;15572;48.810;9.148;2022-09-12T10:01:23;98171.03;;;19.31;92.07
28312;BME280;15572;48.810;9.148;2022-09-12T10:06:24;98160.94;;;19.53;88.53
28312;BME280;15572;48.810;9.148;2022-09-12T10:11:21;98153.78;;;19.74;85.96
28312;BME280;15572;48.810;9.148;2022-09-12T10:16:24;98154.81;;;19.90;83.83
28312;BME280;15572;48.810;9.148;2022-09-12T10:21:27;98155.22;;;20.03;73.73
28312;BME280;15572;48.810;9.148;2022-09-12T10:26:25;98154.63;;;20.23;69.55
28312;BME280;15572;48.810;9.148;2022-09-12T10:31:26;98161.84;;;20.29;72.42
28312;BME280;15572;48.810;9.148;2022-09-12T10:36:24;98148.00;;;20.46;73.01
28312;BME280;15572;48.810;9.148;2022-09-12T10:41:21;98139.94;;;20.66;71.47
28312;BME280;15572;48.810;9.148;2022-09-12T10:46:28;98143.78;;;21.02;68.08
28312;BME280;15572;48.810;9.148;2022-09-12T10:51:26;98147.03;;;21.31;68.12
28312;BME280;15572;48.810;9.148;2022-09-12T10:56:27;98134.72;;;21.49;66.24
28312;BME280;15572;48.810;9.148;2022-09-12T11:01:38;98130.47;;;21.83;64.36
28312;BME280;15572;48.810;9.148;2022-09-12T11:06:41;98117.34;;;22.15;53.97
28312;BME280;15572;48.810;9.148;2022-09-12T11:12:09;98107.47;;;23.05;54.57
28312;BME280;15572;48.810;9.148;2022-09-12T11:17:19;98103.09;;;23.79;53.84
28312;BME280;15572;48.810;9.148;2022-09-12T11:22:31;98102.13;;;24.48;50.91
28312;BME280;15572;48.810;9.148;2022-09-12T11:27:43;98092.53;;;25.32;49.06
28312;BME280;15572;48.810;9.148;2022-09-12T11:33:06;98090.28;;;25.81;47.37
28312;BME280;15572;48.810;9.148;2022-09-12T11:43:35;98072.63;;;26.85;42.44
28312;BME280;15572;48.810;9.148;2022-09-12T11:48:39;98066.31;;;27.11;40.20
28312;BME280;15572;48.810;9.148;2022-09-12T11:53:41;98076.63;;;27.24;39.97
28312;BME280;15572;48.810;9.148;2022-09-12T11:58:40;98060.69;;;27.57;38.92
28312;BME280;15572;48.810;9.148;2022-09-12T12:03:42;98051.69;;;28.01;37.13
28312;BME280;15572;48.810;9.148;2022-09-12T12:08:40;98059.03;;;28.33;37.71
28312;BME280;15572;48.810;9.148;2022-09-12T12:13:39;98055.56;;;28.50;36.24
28312;BME280;15572;48.810;9.148;2022-09-12T12:18:42;98047.28;;;29.12;35.08
28312;BME280;15572;48.810;9.148;2022-09-12T12:23:39;98051.25;;;29.50;33.75
28312;BME280;15572;48.810;9.148;2022-09-12T12:28:59;98047.44;;;29.86;32.86
28312;BME280;15572;48.810;9.148;2022-09-12T12:34:19;98037.28;;;29.42;32.58
28312;BME280;15572;48.810;9.148;2022-09-12T12:44:55;98024.66;;;30.27;32.23
28312;BME280;15572;48.810;9.148;2022-09-12T12:49:55;98021.72;;;30.49;30.58
28312;BME280;15572;48.810;9.148;2022-09-12T12:54:55;98020.75;;;30.53;30.78
28312;BME280;15572;48.810;9.148;2022-09-12T12:59:54;98009.53;;;30.71;30.97
28312;BME280;15572;48.810;9.148;2022-09-12T13:04:55;98001.88;;;30.07;31.17
28312;BME280;15572;48.810;9.148;2022-09-12T13:09:52;98000.38;;;30.01;31.50
28312;BME280;15572;48.810;9.148;2022-09-12T13:14:52;97985.09;;;29.99;31.90
28312;BME280;15572;48.810;9.148;2022-09-12T13:19:58;97987.16;;;29.76;32.40
28312;BME280;15572;48.810;9.148;2022-09-12T13:24:58;97981.31;;;28.90;30.72
28312;BME280;15572;48.810;9.148;2022-09-12T13:30:05;97965.69;;;28.58;32.65
28312;BME280;15572;48.810;9.148;2022-09-12T13:35:10;97965.84;;;28.75;32.60
28312;BME280;15572;48.810;9.148;2022-09-12T13:40:26;97963.69;;;28.72;33.42
28312;BME280;15572;48.810;9.148;2022-09-12T13:45:24;97948.81;;;28.24;33.93
28312;BME280;15572;48.810;9.148;2022-09-12T13:50:25;97948.31;;;27.50;35.46
28312;BME280;15572;48.810;9.148;2022-09-12T13:55:29;97940.31;;;27.07;36.16
28312;BME280;15572;48.810;9.148;2022-09-12T14:00:27;97939.16;;;26.95;34.74
28312;BME280;15572;48.810;9.148;2022-09-12T14:05:27;97934.50;;;26.49;33.91
28312;BME280;15572;48.810;9.148;2022-09-12T14:10:27;97927.56;;;26.33;35.83
28312;BME280;15572;48.810;9.148;2022-09-12T14:15:27;97924.34;;;26.26;36.25
28312;BME280;15572;48.810;9.148;2022-09-12T14:20:28;97919.69;;;26.21;35.69
28312;BME280;15572;48.810;9.148;2022-09-12T14:25:28;97919.44;;;26.04;36.70
28312;BME280;15572;48.810;9.148;2022-09-12T14:30:33;97917.91;;;26.12;36.12
28312;BME280;15572;48.810;9.148;2022-09-12T14:35:31;97911.94;;;26.05;36.08
28312;BME280;15572;48.810;9.148;2022-09-12T14:40:28;97907.72;;;26.07;35.77
28312;BME280;15572;48.810;9.148;2022-09-12T14:45:28;97901.13;;;26.03;36.16
28312;BME280;15572;48.810;9.148;2022-09-12T14:50:26;97896.72;;;26.02;35.69
28312;BME280;15572;48.810;9.148;2022-09-12T14:55:29;97899.09;;;26.09;36.08
28312;BME280;15572;48.810;9.148;2022-09-12T15:00:26;97894.69;;;26.08;36.84
28312;BME280;15572;48.810;9.148;2022-09-12T15:05:25;97891.06;;;26.07;36.78
28312;BME280;15572;48.810;9.148;2022-09-12T15:10:26;97890.97;;;25.98;34.80
28312;BME280;15572;48.810;9.148;2022-09-12T15:15:26;97881.69;;;25.89;35.12
28312;BME280;15572;48.810;9.148;2022-09-12T15:20:23;97878.53;;;25.96;35.23
28312;BME280;15572;48.810;9.148;2022-09-12T15:25:20;97870.19;;;26.28;35.85
28312;BME280;15572;48.810;9.148;2022-09-12T15:30:16;97872.28;;;26.36;36.02
28312;BME280;15572;48.810;9.148;2022-09-12T15:35:15;97863.53;;;26.29;35.43
28312;BME280;15572;48.810;9.148;2022-09-12T15:40:12;97865.38;;;26.34;35.82
28312;BME280;15572;48.810;9.148;2022-09-12T15:45:15;97856.88;;;26.44;36.25
28312;BME280;15572;48.810;9.148;2022-09-12T15:50:15;97852.06;;;26.50;36.71
28312;BME280;15572;48.810;9.148;2022-09-12T15:55:14;97847.31;;;26.64;36.50
28312;BME280;15572;48.810;9.148;2022-09-12T16:00:13;97844.56;;;26.64;36.53
28312;BME280;15572;48.810;9.148;2022-09-12T16:05:13;97836.63;;;26.44;37.68
28312;BME280;15572;48.810;9.148;2022-09-12T16:10:16;97840.03;;;26.08;39.01
28312;BME280;15572;48.810;9.148;2022-09-12T16:15:15;97834.38;;;25.67;40.06
28312;BME280;15572;48.810;9.148;2022-09-12T16:20:12;97827.03;;;25.39;40.32
28312;BME280;15572;48.810;9.148;2022-09-12T16:25:09;97815.69;;;25.03;41.89
28312;BME280;15572;48.810;9.148;2022-09-12T16:30:08;97824.44;;;24.67;43.22
28312;BME280;15572;48.810;9.148;2022-09-12T16:35:06;97825.00;;;24.46;43.92
28312;BME280;15572;48.810;9.148;2022-09-12T16:40:04;97817.50;;;24.22;44.89
28312;BME280;15572;48.810;9.148;2022-09-12T16:45:01;97818.22;;;24.04;45.45
28312;BME280;15572;48.810;9.148;2022-09-12T16:49:59;97809.84;;;23.85;45.80
28312;BME280;15572;48.810;9.148;2022-09-12T16:54:55;97819.38;;;23.69;46.11
28312;BME280;15572;48.810;9.148;2022-09-12T16:59:52;97811.47;;;23.58;46.42
28312;BME280;15572;48.810;9.148;2022-09-12T17:04:49;97815.75;;;23.35;47.52
28312;BME280;15572;48.810;9.148;2022-09-12T17:09:48;97807.13;;;23.13;48.71
28312;BME280;15572;48.810;9.148;2022-09-12T17:14:45;97815.81;;;22.91;49.30
28312;BME280;15572;48.810;9.148;2022-09-12T17:19:41;97816.44;;;22.67;49.95
28312;BME280;15572;48.810;9.148;2022-09-12T17:24:38;97809.38;;;22.41;50.99
28312;BME280;15572;48.810;9.148;2022-09-12T17:29:37;97806.19;;;22.09;52.64
28312;BME280;15572;48.810;9.148;2022-09-12T17:34:33;97818.59;;;21.81;53.26
28312;BME280;15572;48.810;9.148;2022-09-12T17:39:30;97817.53;;;21.47;58.13
28312;BME280;15572;48.810;9.148;2022-09-12T17:44:26;97810.06;;;21.17;60.78
28312;BME280;15572;48.810;9.148;2022-09-12T17:49:25;97816.31;;;20.82;64.20
28312;BME280;15572;48.810;9.148;2022-09-12T17:54:22;97826.38;;;20.51;65.54
28312;BME280;15572;48.810;9.148;2022-09-12T17:59:21;97830.50;;;20.01;66.37
28312;BME280;15572;48.810;9.148;2022-09-12T18:04:19;97834.91;;;19.60;67.20
28312;BME280;15572;48.810;9.148;2022-09-12T18:09:19;97833.91;;;19.45;69.18
28312;BME280;15572;48.810;9.148;2022-09-12T18:14:16;97823.31;;;19.26;72.21
28312;BME280;15572;48.810;9.148;2022-09-12T18:19:14;97829.22;;;19.13;70.99
28312;BME280;15572;48.810;9.148;2022-09-12T18:24:11;97831.97;;;19.13;72.40
28312;BME280;15572;48.810;9.148;2022-09-12T18:29:09;97836.47;;;18.98;72.04
28312;BME280;15572;48.810;9.148;2022-09-12T18:34:06;97836.94;;;18.89;75.27
28312;BME280;15572;48.810;9.148;2022-09-12T18:39:06;97840.47;;;18.85;75.09
28312;BME280;15572;48.810;9.148;2022-09-12T18:44:03;97846.97;;;18.79;75.92
28312;BME280;15572;48.810;9.148;2022-09-12T18:49:01;97846.81;;;18.64;74.81
28312;BME280;15572;48.810;9.148;2022-09-12T18:54:00;97846.84;;;18.47;75.93
28312;BME280;15572;48.810;9.148;2022-09-12T18:58:58;97838.03;;;18.23;76.44
28312;BME280;15572;48.810;9.148;2022-09-12T19:03:55;97835.59;;;18.05;76.82
28312;BME280;15572;48.810;9.148;2022-09-12T19:08:55;97839.94;;;17.84;78.38
28312;BME280;15572;48.810;9.148;2022-09-12T19:13:52;97841.53;;;17.80;77.57
28312;BME280;15572;48.810;9.148;2022-09-12T19:18:49;97846.16;;;17.80;77.96
28312;BME280;15572;48.810;9.148;2022-09-12T19:23:47;97842.53;;;17.74;79.25
28312;BME280;15572;48.810;9.148;2022-09-12T19:28:45;97843.13;;;17.59;79.75
28312;BME280;15572;48.810;9.148;2022-09-12T19:33:42;97841.84;;;17.50;79.50
28312;BME280;15572;48.810;9.148;2022-09-12T19:38:38;97840.88;;;17.40;81.64
28312;BME280;15572;48.810;9.148;2022-09-12T19:43:35;97836.06;;;17.30;82.55
28312;BME280;15572;48.810;9.148;2022-09-12T19:48:33;97832.06;;;17.21;83.58
28312;BME280;15572;48.810;9.148;2022-09-12T19:53:30;97834.28;;;17.07;83.70
28312;BME280;15572;48.810;9.148;2022-09-12T19:58:27;97826.00;;;17.02;85.25
28312;BME280;15572;48.810;9.148;2022-09-12T20:03:24;97825.97;;;16.86;85.76
28312;BME280;15572;48.810;9.148;2022-09-12T20:08:22;97827.91;;;16.73;86.56
28312;BME280;15572;48.810;9.148;2022-09-12T20:13:18;97834.81;;;16.76;86.94
28312;BME280;15572;48.810;9.148;2022-09-12T20:18:15;97839.81;;;16.67;87.15
28312;BME280;15572;48.810;9.148;2022-09-12T20:23:11;97838.97;;;16.67;88.44
28312;BME280;15572;48.810;9.148;2022-09-12T20:28:09;97832.53;;;16.45;90.09
28312;BME280;15572;48.810;9.148;2022-09-12T20:33:05;97822.78;;;16.37;89.93
28312;BME280;15572;48.810;9.148;2022-09-12T20:38:02;97812.50;;;16.27;91.09
28312;BME280;15572;48.810;9.148;2022-09-12T20:43:06;97806.34;;;16.20;92.01
28312;BME280;15572;48.810;9.148;2022-09-12T20:48:04;97797.81;;;16.17;92.42
28312;BME280;15572;48.810;9.148;2022-09-12T20:53:01;97802.94;;;16.13;93.07
28312;BME280;15572;48.810;9.148;2022-09-12T20:57:57;97806.97;;;16.11;93.16
28312;BME280;15572;48.810;9.148;2022-09-12T21:02:54;97809.69;;;15.99;94.18
28312;BME280;15572;48.810;9.148;2022-09-12T21:07:52;97803.78;;;15.90;95.61
28312;BME280;15572;48.810;9.148;2022-09-12T21:12:48;97802.25;;;15.83;96.08
28312;BME280;15572;48.810;9.148;2022-09-12T21:17:45;97807.13;;;15.81;96.08
28312;BME280;15572;48.810;9.148;2022-09-12T21:22:41;97812.81;;;15.79;96.28
28312;BME280;15572;48.810;9.148;2022-09-12T21:27:39;97814.00;;;15.72;96.92
28312;BME280;15572;48.810;9.148;2022-09-12T21:32:35;97808.19;;;15.68;97.45
28312;BME280;15572;48.810;9.148;2022-09-12T21:37:33;97820.41;;;15.66;98.19
28312;BME280;15572;48.810;9.148;2022-09-12T21:42:29;97814.16;;;15.65;98.80
28312;BME280;15572;48.810;9.148;2022-09-12T21:47:27;97808.91;;;15.64;99.93
28312;BME280;15572;48.810;9.148;2022-09-12T21:52:23;97804.19;;;15.59;100.00
28312;BME280;15572;48.810;9.148;2022-09-12T21:57:20;97800.84;;;15.57;100.00
28312;BME280;15572;48.810;9.148;2022-09-12T22:02:17;97788.88;;;15.58;100.00
28312;BME280;15572;48.810;9.148;2022-09-12T22:07:15;97791.50;;;15.53;100.00
28312;BME280;15572;48.810;9.148;2022-09-12T22:12:12;97791.91;;;15.50;100.00
28312;BME280;15572;48.810;9.148;2022-09-12T22:17:09;97786.94;;;15.47;100.00
28312;BME280;15572;48.810;9.148;2022-09-12T22:22:06;97778.66;;;15.42;100.00
28312;BME280;15572;48.810;9.148;2022-09-12T22:27:21;97770.81;;;15.34;100.00
28312;BME280;15572;48.810;9.148;2022-09-12T22:32:18;97763.34;;;15.29;100.00
28312;BME280;15572;48.810;9.148;2022-09-12T22:37:15;97744.34;;;15.23;100.00
28312;BME280;15572;48.810;9.148;2022-09-12T22:42:12;97751.13;;;15.20;100.00
28312;BME280;15572;48.810;9.148;2022-09-12T22:47:10;97755.53;;;15.21;100.00
28312;BME280;15572;48.810;9.148;2022-09-12T22:52:07;97755.75;;;15.20;100.00
28312;BME280;15572;48.810;9.148;2022-09-12T22:57:03;97753.63;;;15.22;100.00
28312;BME280;15572;48.810;9.148;2022-09-12T23:02:00;97763.22;;;15.24;100.00
28312;BME280;15572;48.810;9.148;2022-09-12T23:06:58;97762.38;;;15.24;100.00
28312;BME280;15572;48.810;9.148;2022-09-12T23:11:54;97760.16;;;15.21;100.00
28312;BME280;15572;48.810;9.148;2022-09-12T23:16:51;97757.41;;;15.21;100.00
28312;BME280;15572;48.810;9.148;2022-09-12T23:21:47;97775.91;;;15.18;100.00
28312;BME280;15572;48.810;9.148;2022-09-12T23:26:45;97774.22;;;15.17;100.00
28312;BME280;15572;48.810;9.148;2022-09-12T23:31:42;97767.28;;;15.22;100.00
28312;BME280;15572;48.810;9.148;2022-09-12T23:36:38;97766.66;;;15.20;100.00
28312;BME280;15572;48.810;9.148;2022-09-12T23:41:35;97755.41;;;15.16;100.00
28312;BME280;15572;48.810;9.148;2022-09-12T23:46:33;97741.88;;;15.09;100.00
28312;BME280;15572;48.810;9.148;2022-09-12T23:51:30;97739.75;;;15.00;100.00
28312;BME280;15572;48.810;9.148;2022-09-12T23:56:26;97737.97;;;14.94;100.00
